sensor_id;sensor_type;location;lat;lon;timestamp;P1;durP1;ratioP1;P2;durP2;ratioP2
4742;SDS011;24293;48.154;7.748;2022-11-20T00:02:10;9.97;;;5.73;;
4742;SDS011;24293;48.154;7.748;2022-11-20T00:04:36;7.10;;;4.37;;
4742;SDS011;24293;48.154;7.748;2022-11-20T00:07:02;7.60;;;4.73;;
4742;SDS011;24293;48.154;7.748;2022-11-20T00:09:30;6.83;;;4.80;;
4742;SDS011;24293;48.154;7.748;2022-11-20T00:11:57;10.47;;;5.27;;
4742;SDS011;24293;48.154;7.748;2022-11-20T00:14:23;9.17;;;5.43;;
4742;SDS011;24293;48.154;7.748;2022-11-20T00:16:50;10.77;;;5.67;;
4742;SDS011;24293;48.154;7.748;2022-11-20T00:19:16;7.73;;;5.10;;
4742;SDS011;24293;48.154;7.748;2022-11-20T00:21:43;7.10;;;5.40;;
4742;SDS011;24293;48.154;7.748;2022-11-20T00:24:09;11.23;;;5.50;;
4742;SDS011;24293;48.154;7.748;2022-11-20T00:26:37;10.00;;;5.37;;
4742;SDS011;24293;48.154;7.748;2022-11-20T00:29:04;10.27;;;5.77;;
4742;SDS011;24293;48.154;7.748;2022-11-20T00:31:30;9.90;;;5.57;;
4742;SDS011;24293;48.154;7.748;2022-11-20T00:33:58;11.10;;;5.53;;
4742;SDS011;24293;48.154;7.748;2022-11-20T00:36:25;9.27;;;6.10;;
4742;SDS011;24293;48.154;7.748;2022-11-20T00:38:52;9.53;;;6.00;;
4742;SDS011;24293;48.154;7.748;2022-11-20T00:41:18;15.57;;;5.40;;
4742;SDS011;24293;48.154;7.748;2022-11-20T00:43:46;12.83;;;5.40;;
4742;SDS011;24293;48.154;7.748;2022-11-20T00:46:13;8.80;;;6.00;;
4742;SDS011;24293;48.154;7.748;2022-11-20T00:48:40;12.10;;;5.57;;
4742;SDS011;24293;48.154;7.748;2022-11-20T00:51:07;9.60;;;5.97;;
4742;SDS011;24293;48.154;7.748;2022-11-20T00:53:34;9.00;;;5.87;;
4742;SDS011;24293;48.154;7.748;2022-11-20T00:56:01;11.10;;;5.80;;
4742;SDS011;24293;48.154;7.748;2022-11-20T00:58:28;13.50;;;5.90;;
4742;SDS011;24293;48.154;7.748;2022-11-20T01:01:00;8.70;;;5.60;;
4742;SDS011;24293;48.154;7.748;2022-11-20T01:03:27;13.07;;;6.60;;
4742;SDS011;24293;48.154;7.748;2022-11-20T01:05:54;10.47;;;6.80;;
4742;SDS011;24293;48.154;7.748;2022-11-20T01:08:20;8.77;;;5.40;;
4742;SDS011;24293;48.154;7.748;2022-11-20T01:10:47;7.80;;;5.90;;
4742;SDS011;24293;48.154;7.748;2022-11-20T01:13:13;10.40;;;6.37;;
4742;SDS011;24293;48.154;7.748;2022-11-20T01:16:02;14.40;;;6.30;;
4742;SDS011;24293;48.154;7.748;2022-11-20T01:18:29;8.60;;;5.50;;
4742;SDS011;24293;48.154;7.748;2022-11-20T01:20:55;18.80;;;7.60;;
4742;SDS011;24293;48.154;7.748;2022-11-20T01:23:25;13.20;;;6.50;;
4742;SDS011;24293;48.154;7.748;2022-11-20T01:25:52;11.60;;;5.87;;
4742;SDS011;24293;48.154;7.748;2022-11-20T01:28:18;12.53;;;6.63;;
4742;SDS011;24293;48.154;7.748;2022-11-20T01:30:45;15.20;;;6.27;;
4742;SDS011;24293;48.154;7.748;2022-11-20T01:33:13;16.60;;;7.33;;
4742;SDS011;24293;48.154;7.748;2022-11-20T01:35:39;12.60;;;6.40;;
4742;SDS011;24293;48.154;7.748;2022-11-20T01:38:06;10.90;;;6.30;;
4742;SDS011;24293;48.154;7.748;2022-11-20T01:40:32;9.60;;;6.33;;
4742;SDS011;24293;48.154;7.748;2022-11-20T01:43:01;9.27;;;5.53;;
4742;SDS011;24293;48.154;7.748;2022-11-20T01:45:56;9.43;;;5.10;;
4742;SDS011;24293;48.154;7.748;2022-11-20T01:48:26;8.20;;;5.60;;
4742;SDS011;24293;48.154;7.748;2022-11-20T01:50:53;9.73;;;6.00;;
4742;SDS011;24293;48.154;7.748;2022-11-20T01:53:21;10.60;;;5.30;;
4742;SDS011;24293;48.154;7.748;2022-11-20T01:55:50;9.83;;;5.90;;
4742;SDS011;24293;48.154;7.748;2022-11-20T01:58:18;9.73;;;5.17;;
4742;SDS011;24293;48.154;7.748;2022-11-20T02:00:49;9.87;;;5.30;;
4742;SDS011;24293;48.154;7.748;2022-11-20T02:03:16;12.50;;;5.10;;
4742;SDS011;24293;48.154;7.748;2022-11-20T02:05:45;15.83;;;5.43;;
4742;SDS011;24293;48.154;7.748;2022-11-20T02:08:13;11.00;;;5.60;;
4742;SDS011;24293;48.154;7.748;2022-11-20T02:10:39;9.07;;;6.07;;
4742;SDS011;24293;48.154;7.748;2022-11-20T02:13:05;8.47;;;4.77;;
4742;SDS011;24293;48.154;7.748;2022-11-20T02:15:50;10.23;;;4.90;;
4742;SDS011;24293;48.154;7.748;2022-11-20T02:18:17;8.20;;;4.10;;
4742;SDS011;24293;48.154;7.748;2022-11-20T02:20:46;10.43;;;5.17;;
4742;SDS011;24293;48.154;7.748;2022-11-20T02:23:15;7.57;;;4.90;;
4742;SDS011;24293;48.154;7.748;2022-11-20T02:25:45;7.70;;;4.77;;
4742;SDS011;24293;48.154;7.748;2022-11-20T02:28:12;8.17;;;5.07;;
4742;SDS011;24293;48.154;7.748;2022-11-20T02:30:39;6.63;;;4.63;;
4742;SDS011;24293;48.154;7.748;2022-11-20T02:33:05;10.70;;;5.07;;
4742;SDS011;24293;48.154;7.748;2022-11-20T02:35:39;10.53;;;4.80;;
4742;SDS011;24293;48.154;7.748;2022-11-20T02:38:06;8.00;;;5.07;;
4742;SDS011;24293;48.154;7.748;2022-11-20T02:40:33;9.67;;;4.93;;
4742;SDS011;24293;48.154;7.748;2022-11-20T02:43:01;9.80;;;5.40;;
4742;SDS011;24293;48.154;7.748;2022-11-20T02:45:27;10.50;;;5.47;;
4742;SDS011;24293;48.154;7.748;2022-11-20T02:47:54;9.77;;;4.60;;
4742;SDS011;24293;48.154;7.748;2022-11-20T02:50:20;8.20;;;5.10;;
4742;SDS011;24293;48.154;7.748;2022-11-20T02:52:47;10.03;;;5.33;;
4742;SDS011;24293;48.154;7.748;2022-11-20T02:55:13;7.33;;;4.90;;
4742;SDS011;24293;48.154;7.748;2022-11-20T02:57:40;10.83;;;4.80;;
4742;SDS011;24293;48.154;7.748;2022-11-20T03:00:08;8.13;;;4.87;;
4742;SDS011;24293;48.154;7.748;2022-11-20T03:02:35;13.03;;;5.23;;
4742;SDS011;24293;48.154;7.748;2022-11-20T03:05:02;9.47;;;4.83;;
4742;SDS011;24293;48.154;7.748;2022-11-20T03:07:28;7.17;;;5.10;;
4742;SDS011;24293;48.154;7.748;2022-11-20T03:09:55;8.40;;;4.47;;
4742;SDS011;24293;48.154;7.748;2022-11-20T03:12:21;7.47;;;4.70;;
4742;SDS011;24293;48.154;7.748;2022-11-20T03:14:48;8.63;;;5.10;;
4742;SDS011;24293;48.154;7.748;2022-11-20T03:17:16;12.23;;;4.43;;
4742;SDS011;24293;48.154;7.748;2022-11-20T03:19:43;8.23;;;5.47;;
4742;SDS011;24293;48.154;7.748;2022-11-20T03:22:09;7.20;;;4.63;;
4742;SDS011;24293;48.154;7.748;2022-11-20T03:24:36;7.57;;;4.60;;
4742;SDS011;24293;48.154;7.748;2022-11-20T03:27:02;8.10;;;5.07;;
4742;SDS011;24293;48.154;7.748;2022-11-20T03:29:29;12.50;;;5.03;;
4742;SDS011;24293;48.154;7.748;2022-11-20T03:31:55;10.30;;;5.50;;
4742;SDS011;24293;48.154;7.748;2022-11-20T03:34:23;7.73;;;4.90;;
4742;SDS011;24293;48.154;7.748;2022-11-20T03:36:50;8.77;;;4.60;;
4742;SDS011;24293;48.154;7.748;2022-11-20T03:39:16;7.63;;;4.53;;
4742;SDS011;24293;48.154;7.748;2022-11-20T03:41:43;8.50;;;5.57;;
4742;SDS011;24293;48.154;7.748;2022-11-20T03:44:10;9.10;;;4.70;;
4742;SDS011;24293;48.154;7.748;2022-11-20T03:46:37;8.67;;;4.90;;
4742;SDS011;24293;48.154;7.748;2022-11-20T03:49:04;8.47;;;4.90;;
4742;SDS011;24293;48.154;7.748;2022-11-20T03:51:32;9.47;;;5.30;;
4742;SDS011;24293;48.154;7.748;2022-11-20T03:54:00;7.83;;;5.30;;
4742;SDS011;24293;48.154;7.748;2022-11-20T03:56:27;9.77;;;5.20;;
4742;SDS011;24293;48.154;7.748;2022-11-20T03:58:53;9.13;;;5.30;;
4742;SDS011;24293;48.154;7.748;2022-11-20T04:01:21;13.80;;;5.10;;
4742;SDS011;24293;48.154;7.748;2022-11-20T04:03:48;9.13;;;5.03;;
4742;SDS011;24293;48.154;7.748;2022-11-20T04:06:15;6.40;;;4.57;;
4742;SDS011;24293;48.154;7.748;2022-11-20T04:08:44;7.60;;;5.00;;
4742;SDS011;24293;48.154;7.748;2022-11-20T04:11:11;7.80;;;4.67;;
4742;SDS011;24293;48.154;7.748;2022-11-20T04:13:37;6.90;;;4.40;;
4742;SDS011;24293;48.154;7.748;2022-11-20T04:16:04;11.40;;;4.90;;
4742;SDS011;24293;48.154;7.748;2022-11-20T04:18:31;15.50;;;5.70;;
4742;SDS011;24293;48.154;7.748;2022-11-20T04:20:58;8.93;;;4.80;;
4742;SDS011;24293;48.154;7.748;2022-11-20T04:23:24;10.07;;;5.03;;
4742;SDS011;24293;48.154;7.748;2022-11-20T04:25:52;8.53;;;5.30;;
4742;SDS011;24293;48.154;7.748;2022-11-20T04:28:19;9.73;;;5.50;;
4742;SDS011;24293;48.154;7.748;2022-11-20T04:30:45;7.47;;;4.07;;
4742;SDS011;24293;48.154;7.748;2022-11-20T04:33:12;7.67;;;4.47;;
4742;SDS011;24293;48.154;7.748;2022-11-20T04:35:38;9.20;;;4.70;;
4742;SDS011;24293;48.154;7.748;2022-11-20T04:38:04;6.97;;;4.30;;
4742;SDS011;24293;48.154;7.748;2022-11-20T04:40:31;8.50;;;4.20;;
4742;SDS011;24293;48.154;7.748;2022-11-20T04:42:59;7.27;;;4.10;;
4742;SDS011;24293;48.154;7.748;2022-11-20T04:45:26;5.83;;;3.83;;
4742;SDS011;24293;48.154;7.748;2022-11-20T04:47:52;5.03;;;3.33;;
4742;SDS011;24293;48.154;7.748;2022-11-20T04:50:19;7.47;;;4.00;;
4742;SDS011;24293;48.154;7.748;2022-11-20T04:52:45;11.83;;;4.33;;
4742;SDS011;24293;48.154;7.748;2022-11-20T04:55:11;8.10;;;4.40;;
4742;SDS011;24293;48.154;7.748;2022-11-20T04:57:38;8.27;;;4.50;;
4742;SDS011;24293;48.154;7.748;2022-11-20T05:00:07;6.03;;;3.97;;
4742;SDS011;24293;48.154;7.748;2022-11-20T05:02:33;6.37;;;3.60;;
4742;SDS011;24293;48.154;7.748;2022-11-20T05:05:00;5.03;;;3.40;;
4742;SDS011;24293;48.154;7.748;2022-11-20T05:07:26;5.37;;;3.63;;
4742;SDS011;24293;48.154;7.748;2022-11-20T05:09:53;11.53;;;4.20;;
4742;SDS011;24293;48.154;7.748;2022-11-20T05:12:19;9.00;;;4.20;;
4742;SDS011;24293;48.154;7.748;2022-11-20T05:14:46;6.80;;;4.33;;
4742;SDS011;24293;48.154;7.748;2022-11-20T05:17:13;9.30;;;4.83;;
4742;SDS011;24293;48.154;7.748;2022-11-20T05:19:40;7.67;;;4.30;;
4742;SDS011;24293;48.154;7.748;2022-11-20T05:22:06;6.07;;;3.67;;
4742;SDS011;24293;48.154;7.748;2022-11-20T05:24:33;8.87;;;5.27;;
4742;SDS011;24293;48.154;7.748;2022-11-20T05:26:59;11.50;;;5.30;;
4742;SDS011;24293;48.154;7.748;2022-11-20T05:29:26;8.60;;;4.77;;
4742;SDS011;24293;48.154;7.748;2022-11-20T05:31:52;8.80;;;4.57;;
4742;SDS011;24293;48.154;7.748;2022-11-20T05:34:20;9.10;;;4.43;;
4742;SDS011;24293;48.154;7.748;2022-11-20T05:36:46;10.20;;;4.10;;
4742;SDS011;24293;48.154;7.748;2022-11-20T05:39:13;6.60;;;3.90;;
4742;SDS011;24293;48.154;7.748;2022-11-20T05:41:39;7.40;;;3.63;;
4742;SDS011;24293;48.154;7.748;2022-11-20T05:44:06;7.10;;;3.60;;
4742;SDS011;24293;48.154;7.748;2022-11-20T05:46:33;5.20;;;3.47;;
4742;SDS011;24293;48.154;7.748;2022-11-20T05:48:59;9.73;;;3.33;;
4742;SDS011;24293;48.154;7.748;2022-11-20T05:51:27;6.93;;;3.93;;
4742;SDS011;24293;48.154;7.748;2022-11-20T05:53:54;5.30;;;3.63;;
4742;SDS011;24293;48.154;7.748;2022-11-20T05:56:21;7.37;;;3.63;;
4742;SDS011;24293;48.154;7.748;2022-11-20T05:58:48;7.03;;;3.27;;
4742;SDS011;24293;48.154;7.748;2022-11-20T06:01:15;5.43;;;3.20;;
4742;SDS011;24293;48.154;7.748;2022-11-20T06:03:43;6.50;;;2.70;;
4742;SDS011;24293;48.154;7.748;2022-11-20T06:06:11;5.37;;;3.20;;
4742;SDS011;24293;48.154;7.748;2022-11-20T06:08:39;4.53;;;2.90;;
4742;SDS011;24293;48.154;7.748;2022-11-20T06:11:06;7.13;;;3.13;;
4742;SDS011;24293;48.154;7.748;2022-11-20T06:13:32;4.80;;;3.30;;
4742;SDS011;24293;48.154;7.748;2022-11-20T06:15:59;4.40;;;3.20;;
4742;SDS011;24293;48.154;7.748;2022-11-20T06:18:25;4.20;;;2.90;;
4742;SDS011;24293;48.154;7.748;2022-11-20T06:20:58;4.53;;;2.93;;
4742;SDS011;24293;48.154;7.748;2022-11-20T06:23:25;5.30;;;3.20;;
4742;SDS011;24293;48.154;7.748;2022-11-20T06:25:53;4.60;;;2.97;;
4742;SDS011;24293;48.154;7.748;2022-11-20T06:28:19;3.93;;;2.50;;
4742;SDS011;24293;48.154;7.748;2022-11-20T06:30:47;3.73;;;2.70;;
4742;SDS011;24293;48.154;7.748;2022-11-20T06:33:13;10.93;;;3.53;;
4742;SDS011;24293;48.154;7.748;2022-11-20T06:35:40;6.40;;;3.50;;
4742;SDS011;24293;48.154;7.748;2022-11-20T06:38:06;4.87;;;2.80;;
4742;SDS011;24293;48.154;7.748;2022-11-20T06:40:33;4.53;;;2.80;;
4742;SDS011;24293;48.154;7.748;2022-11-20T06:43:00;4.57;;;2.80;;
4742;SDS011;24293;48.154;7.748;2022-11-20T06:45:27;9.40;;;3.37;;
4742;SDS011;24293;48.154;7.748;2022-11-20T06:47:53;4.80;;;3.00;;
4742;SDS011;24293;48.154;7.748;2022-11-20T06:50:20;5.63;;;3.60;;
4742;SDS011;24293;48.154;7.748;2022-11-20T06:52:46;7.13;;;3.80;;
4742;SDS011;24293;48.154;7.748;2022-11-20T06:55:13;6.90;;;3.50;;
4742;SDS011;24293;48.154;7.748;2022-11-20T06:57:39;6.83;;;3.20;;
4742;SDS011;24293;48.154;7.748;2022-11-20T07:00:08;8.13;;;3.03;;
4742;SDS011;24293;48.154;7.748;2022-11-20T07:02:34;4.37;;;2.90;;
4742;SDS011;24293;48.154;7.748;2022-11-20T07:05:01;9.10;;;3.03;;
4742;SDS011;24293;48.154;7.748;2022-11-20T07:07:27;4.73;;;2.90;;
4742;SDS011;24293;48.154;7.748;2022-11-20T07:09:54;4.43;;;3.40;;
4742;SDS011;24293;48.154;7.748;2022-11-20T07:12:20;6.00;;;3.77;;
4742;SDS011;24293;48.154;7.748;2022-11-20T07:14:47;5.00;;;2.60;;
4742;SDS011;24293;48.154;7.748;2022-11-20T07:17:14;5.30;;;2.70;;
4742;SDS011;24293;48.154;7.748;2022-11-20T07:19:41;7.10;;;3.80;;
4742;SDS011;24293;48.154;7.748;2022-11-20T07:22:08;4.87;;;3.00;;
4742;SDS011;24293;48.154;7.748;2022-11-20T07:24:34;6.50;;;3.43;;
4742;SDS011;24293;48.154;7.748;2022-11-20T07:27:01;6.40;;;3.33;;
4742;SDS011;24293;48.154;7.748;2022-11-20T07:29:27;4.90;;;3.10;;
4742;SDS011;24293;48.154;7.748;2022-11-20T07:31:54;6.00;;;3.10;;
4742;SDS011;24293;48.154;7.748;2022-11-20T07:34:22;4.20;;;2.50;;
4742;SDS011;24293;48.154;7.748;2022-11-20T07:36:48;4.10;;;2.83;;
4742;SDS011;24293;48.154;7.748;2022-11-20T07:39:15;4.03;;;2.97;;
4742;SDS011;24293;48.154;7.748;2022-11-20T07:41:41;9.40;;;3.70;;
4742;SDS011;24293;48.154;7.748;2022-11-20T07:44:07;4.20;;;2.60;;
4742;SDS011;24293;48.154;7.748;2022-11-20T07:46:34;5.03;;;2.63;;
4742;SDS011;24293;48.154;7.748;2022-11-20T07:49:01;6.70;;;2.37;;
4742;SDS011;24293;48.154;7.748;2022-11-20T07:51:29;5.43;;;2.70;;
4742;SDS011;24293;48.154;7.748;2022-11-20T07:53:55;4.43;;;2.80;;
4742;SDS011;24293;48.154;7.748;2022-11-20T07:56:22;3.80;;;2.53;;
4742;SDS011;24293;48.154;7.748;2022-11-20T07:58:49;4.10;;;3.13;;
4742;SDS011;24293;48.154;7.748;2022-11-20T08:01:15;5.47;;;3.10;;
4742;SDS011;24293;48.154;7.748;2022-11-20T08:03:41;4.20;;;2.53;;
4742;SDS011;24293;48.154;7.748;2022-11-20T08:06:08;4.37;;;2.70;;
4742;SDS011;24293;48.154;7.748;2022-11-20T08:08:36;6.20;;;3.33;;
4742;SDS011;24293;48.154;7.748;2022-11-20T08:11:04;5.43;;;3.73;;
4742;SDS011;24293;48.154;7.748;2022-11-20T08:13:48;4.03;;;3.07;;
4742;SDS011;24293;48.154;7.748;2022-11-20T08:16:32;9.30;;;3.87;;
4742;SDS011;24293;48.154;7.748;2022-11-20T08:18:59;5.33;;;3.03;;
4742;SDS011;24293;48.154;7.748;2022-11-20T08:21:25;13.10;;;3.30;;
4742;SDS011;24293;48.154;7.748;2022-11-20T08:23:53;5.10;;;3.70;;
4742;SDS011;24293;48.154;7.748;2022-11-20T08:26:20;5.53;;;2.83;;
4742;SDS011;24293;48.154;7.748;2022-11-20T08:28:47;5.70;;;3.37;;
4742;SDS011;24293;48.154;7.748;2022-11-20T08:31:13;8.43;;;3.70;;
4742;SDS011;24293;48.154;7.748;2022-11-20T08:33:40;8.90;;;3.50;;
4742;SDS011;24293;48.154;7.748;2022-11-20T08:36:06;10.20;;;3.50;;
4742;SDS011;24293;48.154;7.748;2022-11-20T08:38:33;5.60;;;3.47;;
4742;SDS011;24293;48.154;7.748;2022-11-20T08:41:01;6.20;;;3.60;;
4742;SDS011;24293;48.154;7.748;2022-11-20T08:43:46;7.27;;;4.17;;
4742;SDS011;24293;48.154;7.748;2022-11-20T08:46:12;6.13;;;3.10;;
4742;SDS011;24293;48.154;7.748;2022-11-20T08:48:39;7.20;;;3.60;;
4742;SDS011;24293;48.154;7.748;2022-11-20T08:51:05;9.70;;;3.83;;
4742;SDS011;24293;48.154;7.748;2022-11-20T08:53:31;5.97;;;3.50;;
4742;SDS011;24293;48.154;7.748;2022-11-20T08:55:58;6.07;;;3.30;;
4742;SDS011;24293;48.154;7.748;2022-11-20T08:58:26;8.60;;;3.67;;
4742;SDS011;24293;48.154;7.748;2022-11-20T09:00:53;4.83;;;3.10;;
4742;SDS011;24293;48.154;7.748;2022-11-20T09:03:19;15.03;;;3.70;;
4742;SDS011;24293;48.154;7.748;2022-11-20T09:05:46;6.13;;;3.60;;
4742;SDS011;24293;48.154;7.748;2022-11-20T09:08:12;5.43;;;3.73;;
4742;SDS011;24293;48.154;7.748;2022-11-20T09:10:39;6.07;;;3.20;;
4742;SDS011;24293;48.154;7.748;2022-11-20T09:13:05;8.93;;;4.07;;
4742;SDS011;24293;48.154;7.748;2022-11-20T09:15:33;8.37;;;3.20;;
4742;SDS011;24293;48.154;7.748;2022-11-20T09:18:01;5.70;;;3.37;;
4742;SDS011;24293;48.154;7.748;2022-11-20T09:20:28;5.40;;;3.40;;
4742;SDS011;24293;48.154;7.748;2022-11-20T09:22:55;5.43;;;3.23;;
4742;SDS011;24293;48.154;7.748;2022-11-20T09:25:21;5.90;;;3.27;;
4742;SDS011;24293;48.154;7.748;2022-11-20T09:27:54;6.13;;;3.57;;
4742;SDS011;24293;48.154;7.748;2022-11-20T09:30:20;5.33;;;3.27;;
4742;SDS011;24293;48.154;7.748;2022-11-20T09:32:48;6.47;;;3.40;;
4742;SDS011;24293;48.154;7.748;2022-11-20T09:35:15;5.63;;;3.60;;
4742;SDS011;24293;48.154;7.748;2022-11-20T09:37:42;3.07;;;2.60;;
4742;SDS011;24293;48.154;7.748;2022-11-20T09:40:09;4.80;;;2.63;;
4742;SDS011;24293;48.154;7.748;2022-11-20T09:42:44;6.13;;;2.83;;
4742;SDS011;24293;48.154;7.748;2022-11-20T09:45:21;8.93;;;3.40;;
4742;SDS011;24293;48.154;7.748;2022-11-20T09:47:53;6.13;;;3.40;;
4742;SDS011;24293;48.154;7.748;2022-11-20T09:50:25;5.73;;;3.30;;
4742;SDS011;24293;48.154;7.748;2022-11-20T09:52:58;5.17;;;3.23;;
4742;SDS011;24293;48.154;7.748;2022-11-20T09:55:25;5.90;;;3.23;;
4742;SDS011;24293;48.154;7.748;2022-11-20T09:57:54;4.50;;;3.03;;
4742;SDS011;24293;48.154;7.748;2022-11-20T10:00:20;4.47;;;2.53;;
4742;SDS011;24293;48.154;7.748;2022-11-20T10:02:48;5.00;;;3.17;;
4742;SDS011;24293;48.154;7.748;2022-11-20T10:05:18;3.97;;;2.77;;
4742;SDS011;24293;48.154;7.748;2022-11-20T10:07:48;5.43;;;3.97;;
4742;SDS011;24293;48.154;7.748;2022-11-20T10:10:25;8.80;;;5.07;;
4742;SDS011;24293;48.154;7.748;2022-11-20T10:12:57;5.50;;;2.90;;
4742;SDS011;24293;48.154;7.748;2022-11-20T10:15:28;7.77;;;5.77;;
4742;SDS011;24293;48.154;7.748;2022-11-20T10:17:59;6.10;;;4.70;;
4742;SDS011;24293;48.154;7.748;2022-11-20T10:20:32;5.77;;;5.17;;
4742;SDS011;24293;48.154;7.748;2022-11-20T10:23:12;5.63;;;3.73;;
4742;SDS011;24293;48.154;7.748;2022-11-20T10:25:39;10.47;;;6.53;;
4742;SDS011;24293;48.154;7.748;2022-11-20T10:28:15;8.27;;;5.17;;
4742;SDS011;24293;48.154;7.748;2022-11-20T10:30:43;7.93;;;5.73;;
4742;SDS011;24293;48.154;7.748;2022-11-20T10:33:12;6.87;;;4.73;;
4742;SDS011;24293;48.154;7.748;2022-11-20T10:35:41;5.63;;;3.07;;
4742;SDS011;24293;48.154;7.748;2022-11-20T10:38:09;10.10;;;4.70;;
4742;SDS011;24293;48.154;7.748;2022-11-20T10:40:38;6.30;;;4.03;;
4742;SDS011;24293;48.154;7.748;2022-11-20T10:43:08;5.93;;;4.03;;
4742;SDS011;24293;48.154;7.748;2022-11-20T10:45:41;10.23;;;5.30;;
4742;SDS011;24293;48.154;7.748;2022-11-20T10:48:15;6.53;;;4.90;;
4742;SDS011;24293;48.154;7.748;2022-11-20T10:50:49;8.67;;;4.50;;
4742;SDS011;24293;48.154;7.748;2022-11-20T10:53:19;5.47;;;3.63;;
4742;SDS011;24293;48.154;7.748;2022-11-20T10:55:50;4.47;;;3.47;;
4742;SDS011;24293;48.154;7.748;2022-11-20T10:58:20;6.53;;;4.27;;
4742;SDS011;24293;48.154;7.748;2022-11-20T11:00:48;4.93;;;3.70;;
4742;SDS011;24293;48.154;7.748;2022-11-20T11:03:20;7.80;;;4.50;;
4742;SDS011;24293;48.154;7.748;2022-11-20T11:05:49;4.13;;;2.70;;
4742;SDS011;24293;48.154;7.748;2022-11-20T11:08:17;8.93;;;3.70;;
4742;SDS011;24293;48.154;7.748;2022-11-20T11:10:45;8.13;;;6.53;;
4742;SDS011;24293;48.154;7.748;2022-11-20T11:13:20;4.93;;;2.90;;
4742;SDS011;24293;48.154;7.748;2022-11-20T11:15:47;5.10;;;2.90;;
4742;SDS011;24293;48.154;7.748;2022-11-20T11:18:22;7.07;;;3.23;;
4742;SDS011;24293;48.154;7.748;2022-11-20T11:20:51;5.43;;;2.90;;
4742;SDS011;24293;48.154;7.748;2022-11-20T11:23:23;11.97;;;2.80;;
4742;SDS011;24293;48.154;7.748;2022-11-20T11:25:56;3.90;;;2.30;;
4742;SDS011;24293;48.154;7.748;2022-11-20T11:28:23;4.37;;;2.50;;
4742;SDS011;24293;48.154;7.748;2022-11-20T11:30:52;6.10;;;2.47;;
4742;SDS011;24293;48.154;7.748;2022-11-20T11:33:19;4.03;;;2.10;;
4742;SDS011;24293;48.154;7.748;2022-11-20T11:35:47;2.90;;;2.30;;
4742;SDS011;24293;48.154;7.748;2022-11-20T11:38:16;4.03;;;2.70;;
4742;SDS011;24293;48.154;7.748;2022-11-20T11:40:45;3.67;;;2.00;;
4742;SDS011;24293;48.154;7.748;2022-11-20T11:43:19;4.30;;;2.00;;
4742;SDS011;24293;48.154;7.748;2022-11-20T11:46:04;6.63;;;1.87;;
4742;SDS011;24293;48.154;7.748;2022-11-20T11:48:38;5.30;;;1.87;;
4742;SDS011;24293;48.154;7.748;2022-11-20T11:51:07;4.47;;;2.10;;
4742;SDS011;24293;48.154;7.748;2022-11-20T11:53:35;8.80;;;2.80;;
4742;SDS011;24293;48.154;7.748;2022-11-20T11:56:05;3.93;;;1.70;;
4742;SDS011;24293;48.154;7.748;2022-11-20T11:58:38;4.00;;;1.90;;
4742;SDS011;24293;48.154;7.748;2022-11-20T12:01:10;3.63;;;2.57;;
4742;SDS011;24293;48.154;7.748;2022-11-20T12:03:42;3.40;;;2.40;;
4742;SDS011;24293;48.154;7.748;2022-11-20T12:06:11;5.77;;;2.50;;
4742;SDS011;24293;48.154;7.748;2022-11-20T12:08:41;3.80;;;1.97;;
4742;SDS011;24293;48.154;7.748;2022-11-20T12:11:11;4.23;;;1.93;;
4742;SDS011;24293;48.154;7.748;2022-11-20T12:13:43;6.43;;;2.03;;
4742;SDS011;24293;48.154;7.748;2022-11-20T12:16:11;2.87;;;1.93;;
4742;SDS011;24293;48.154;7.748;2022-11-20T12:18:38;3.63;;;2.10;;
4742;SDS011;24293;48.154;7.748;2022-11-20T12:21:14;10.00;;;3.37;;
4742;SDS011;24293;48.154;7.748;2022-11-20T12:23:47;3.10;;;1.83;;
4742;SDS011;24293;48.154;7.748;2022-11-20T12:26:19;3.57;;;2.00;;
4742;SDS011;24293;48.154;7.748;2022-11-20T12:28:53;4.07;;;2.33;;
4742;SDS011;24293;48.154;7.748;2022-11-20T12:31:30;4.73;;;1.70;;
4742;SDS011;24293;48.154;7.748;2022-11-20T12:34:03;3.50;;;2.30;;
4742;SDS011;24293;48.154;7.748;2022-11-20T12:36:36;3.20;;;1.83;;
4742;SDS011;24293;48.154;7.748;2022-11-20T12:39:11;5.07;;;1.83;;
4742;SDS011;24293;48.154;7.748;2022-11-20T12:41:48;4.33;;;2.20;;
4742;SDS011;24293;48.154;7.748;2022-11-20T12:44:39;6.93;;;2.50;;
4742;SDS011;24293;48.154;7.748;2022-11-20T12:47:31;4.30;;;2.00;;
4742;SDS011;24293;48.154;7.748;2022-11-20T12:50:02;5.33;;;2.77;;
4742;SDS011;24293;48.154;7.748;2022-11-20T12:52:37;6.50;;;2.67;;
4742;SDS011;24293;48.154;7.748;2022-11-20T12:55:14;4.90;;;2.50;;
4742;SDS011;24293;48.154;7.748;2022-11-20T12:57:44;4.23;;;2.10;;
4742;SDS011;24293;48.154;7.748;2022-11-20T13:00:14;4.67;;;2.57;;
4742;SDS011;24293;48.154;7.748;2022-11-20T13:02:45;4.20;;;2.10;;
4742;SDS011;24293;48.154;7.748;2022-11-20T13:05:24;5.20;;;2.60;;
4742;SDS011;24293;48.154;7.748;2022-11-20T13:07:53;7.83;;;3.40;;
4742;SDS011;24293;48.154;7.748;2022-11-20T13:10:23;3.33;;;2.03;;
4742;SDS011;24293;48.154;7.748;2022-11-20T13:12:54;8.60;;;2.07;;
4742;SDS011;24293;48.154;7.748;2022-11-20T13:15:26;8.60;;;3.20;;
4742;SDS011;24293;48.154;7.748;2022-11-20T13:17:56;7.23;;;1.63;;
4742;SDS011;24293;48.154;7.748;2022-11-20T13:20:23;3.00;;;1.77;;
4742;SDS011;24293;48.154;7.748;2022-11-20T13:22:51;5.40;;;3.90;;
4742;SDS011;24293;48.154;7.748;2022-11-20T13:25:24;5.23;;;2.27;;
4742;SDS011;24293;48.154;7.748;2022-11-20T13:27:51;4.73;;;2.43;;
4742;SDS011;24293;48.154;7.748;2022-11-20T13:30:18;2.23;;;1.80;;
4742;SDS011;24293;48.154;7.748;2022-11-20T13:32:49;3.33;;;1.90;;
4742;SDS011;24293;48.154;7.748;2022-11-20T13:35:23;4.03;;;2.60;;
4742;SDS011;24293;48.154;7.748;2022-11-20T13:37:58;4.00;;;2.60;;
4742;SDS011;24293;48.154;7.748;2022-11-20T13:40:26;6.97;;;2.40;;
4742;SDS011;24293;48.154;7.748;2022-11-20T13:43:01;4.17;;;2.30;;
4742;SDS011;24293;48.154;7.748;2022-11-20T13:45:29;4.43;;;2.70;;
4742;SDS011;24293;48.154;7.748;2022-11-20T13:47:56;3.50;;;1.50;;
4742;SDS011;24293;48.154;7.748;2022-11-20T13:50:27;5.20;;;1.80;;
4742;SDS011;24293;48.154;7.748;2022-11-20T13:53:04;6.17;;;1.70;;
4742;SDS011;24293;48.154;7.748;2022-11-20T13:55:35;3.03;;;1.93;;
4742;SDS011;24293;48.154;7.748;2022-11-20T13:58:11;3.10;;;2.10;;
4742;SDS011;24293;48.154;7.748;2022-11-20T14:00:43;5.90;;;2.40;;
4742;SDS011;24293;48.154;7.748;2022-11-20T14:03:12;5.90;;;1.93;;
4742;SDS011;24293;48.154;7.748;2022-11-20T14:05:45;5.60;;;2.07;;
4742;SDS011;24293;48.154;7.748;2022-11-20T14:08:14;3.80;;;1.87;;
4742;SDS011;24293;48.154;7.748;2022-11-20T14:10:45;6.30;;;2.20;;
4742;SDS011;24293;48.154;7.748;2022-11-20T14:13:15;4.10;;;1.83;;
4742;SDS011;24293;48.154;7.748;2022-11-20T14:15:43;4.27;;;1.80;;
4742;SDS011;24293;48.154;7.748;2022-11-20T14:18:13;4.80;;;2.47;;
4742;SDS011;24293;48.154;7.748;2022-11-20T14:20:40;4.60;;;2.50;;
4742;SDS011;24293;48.154;7.748;2022-11-20T14:23:08;3.87;;;1.73;;
4742;SDS011;24293;48.154;7.748;2022-11-20T14:25:35;4.53;;;1.83;;
4742;SDS011;24293;48.154;7.748;2022-11-20T14:28:03;5.03;;;1.93;;
4742;SDS011;24293;48.154;7.748;2022-11-20T14:35:44;3.33;;;2.20;;
4742;SDS011;24293;48.154;7.748;2022-11-20T14:38:13;10.93;;;3.50;;
4742;SDS011;24293;48.154;7.748;2022-11-20T14:40:45;6.83;;;3.20;;
4742;SDS011;24293;48.154;7.748;2022-11-20T14:43:18;5.07;;;2.23;;
4742;SDS011;24293;48.154;7.748;2022-11-20T14:45:52;5.50;;;2.53;;
4742;SDS011;24293;48.154;7.748;2022-11-20T14:48:33;4.17;;;2.20;;
4742;SDS011;24293;48.154;7.748;2022-11-20T14:51:10;3.70;;;2.40;;
4742;SDS011;24293;48.154;7.748;2022-11-20T14:53:39;3.00;;;1.93;;
4742;SDS011;24293;48.154;7.748;2022-11-20T14:56:07;6.90;;;2.80;;
4742;SDS011;24293;48.154;7.748;2022-11-20T14:58:45;13.30;;;6.37;;
4742;SDS011;24293;48.154;7.748;2022-11-20T15:01:25;10.20;;;4.77;;
4742;SDS011;24293;48.154;7.748;2022-11-20T15:03:57;6.53;;;3.07;;
4742;SDS011;24293;48.154;7.748;2022-11-20T15:06:25;10.33;;;3.40;;
4742;SDS011;24293;48.154;7.748;2022-11-20T15:08:52;6.13;;;2.33;;
4742;SDS011;24293;48.154;7.748;2022-11-20T15:11:19;3.93;;;2.30;;
4742;SDS011;24293;48.154;7.748;2022-11-20T15:13:48;5.27;;;2.63;;
4742;SDS011;24293;48.154;7.748;2022-11-20T15:16:16;4.10;;;2.80;;